createdAt,value
2022-09-27T00:00:43.002Z,12.30
2022-09-27T00:03:11.104Z,12.30
2022-09-27T00:05:38.369Z,12.20
2022-09-27T00:08:05.207Z,12.20
2022-09-27T00:10:32.144Z,12.10
2022-09-27T00:12:59.231Z,12.10
2022-09-27T00:15:25.875Z,12.00
2022-09-27T00:17:52.457Z,12.00
2022-09-27T00:20:20.731Z,12.00
2022-09-27T00:22:50.442Z,11.90
2022-09-27T00:25:17.647Z,11.90
2022-09-27T00:27:44.692Z,11.90
2022-09-27T00:30:12.285Z,11.90
2022-09-27T00:32:38.894Z,11.90
2022-09-27T00:35:05.745Z,11.90
2022-09-27T00:37:32.695Z,11.90
2022-09-27T00:39:59.770Z,11.90
2022-09-27T00:42:26.345Z,11.90
2022-09-27T00:45:11.698Z,11.90
2022-09-27T00:47:51.177Z,11.90
2022-09-27T00:50:25.645Z,11.90
2022-09-27T00:53:09.208Z,11.90
2022-09-27T00:55:44.266Z,11.90
2022-09-27T00:58:13.899Z,11.90
2022-09-27T01:00:45.713Z,11.90
2022-09-27T01:03:21.202Z,11.90
2022-09-27T01:05:48.522Z,11.90
2022-09-27T01:08:15.217Z,11.90
2022-09-27T01:11:08.031Z,11.90
2022-09-27T01:14:03.879Z,11.90
2022-09-27T01:16:42.365Z,11.90
2022-09-27T01:19:24.083Z,11.90
2022-09-27T01:21:59.603Z,11.90
2022-09-27T01:24:50.037Z,11.90
2022-09-27T01:27:23.198Z,11.90
2022-09-27T01:29:59.084Z,12.00
2022-09-27T01:32:52.993Z,12.00
2022-09-27T01:35:57.776Z,12.00
2022-09-27T01:38:35.126Z,12.10
2022-09-27T01:41:29.095Z,12.10
2022-09-27T01:44:36.967Z,12.10
2022-09-27T01:47:16.577Z,12.20
2022-09-27T01:50:25.509Z,12.20
2022-09-27T01:52:59.965Z,12.20
2022-09-27T01:55:35.132Z,12.20
2022-09-27T01:58:57.510Z,12.20
2022-09-27T02:01:27.188Z,12.20
2022-09-27T02:03:57.401Z,12.20
2022-09-27T02:07:08.689Z,12.20
2022-09-27T02:09:47.501Z,12.20
2022-09-27T02:12:28.572Z,12.30
2022-09-27T02:15:04.175Z,12.30
2022-09-27T02:17:48.160Z,12.30
2022-09-27T02:20:39.454Z,12.30
2022-09-27T02:23:19.189Z,12.30
2022-09-27T02:26:00.465Z,12.30
2022-09-27T02:28:41.647Z,12.30
2022-09-27T02:31:10.410Z,12.30
2022-09-27T02:33:44.881Z,12.30
2022-09-27T02:36:11.998Z,12.30
2022-09-27T02:38:39.947Z,12.30
2022-09-27T02:41:18.487Z,12.30
2022-09-27T02:43:52.559Z,12.30
2022-09-27T02:46:57.711Z,12.20
2022-09-27T02:49:55.371Z,12.20
2022-09-27T02:53:07.954Z,12.10
2022-09-27T02:56:07.814Z,12.10
2022-09-27T02:59:13.813Z,12.10
2022-09-27T03:02:33.412Z,12.10
2022-09-27T03:05:27.863Z,12.10
2022-09-27T03:07:54.655Z,12.00
2022-09-27T03:10:24.934Z,12.00
2022-09-27T03:12:51.915Z,12.00
2022-09-27T03:15:18.585Z,12.00
2022-09-27T03:18:00.519Z,11.90
2022-09-27T03:20:42.210Z,11.90
2022-09-27T03:23:15.207Z,11.90
2022-09-27T03:25:41.866Z,11.90
2022-09-27T03:28:10.284Z,11.90
2022-09-27T03:30:38.068Z,11.90
2022-09-27T03:33:05.425Z,11.90
2022-09-27T03:35:43.113Z,11.90
2022-09-27T03:38:10.763Z,11.90
2022-09-27T03:40:37.907Z,11.90
2022-09-27T03:43:06.039Z,11.90
2022-09-27T03:45:33.642Z,11.90
2022-09-27T03:48:04.381Z,11.90
2022-09-27T03:50:31.226Z,11.90
2022-09-27T03:52:57.801Z,11.90
2022-09-27T03:55:24.987Z,11.90
2022-09-27T03:57:51.542Z,11.90
2022-09-27T04:00:19.243Z,11.90
2022-09-27T04:02:46.005Z,11.90
2022-09-27T04:05:26.533Z,11.90
2022-09-27T04:08:03.440Z,11.90
2022-09-27T04:10:32.239Z,11.80
2022-09-27T04:12:59.001Z,11.80
2022-09-27T04:15:29.256Z,11.80
2022-09-27T04:18:14.682Z,11.80
2022-09-27T04:21:15.365Z,11.80
2022-09-27T04:23:48.250Z,11.80
2022-09-27T04:26:17.256Z,11.70
2022-09-27T04:28:54.922Z,11.70
2022-09-27T04:31:22.763Z,11.70
2022-09-27T04:34:10.023Z,11.70
2022-09-27T04:36:37.338Z,11.70
2022-09-27T04:39:09.159Z,11.70
2022-09-27T04:41:41.875Z,11.60
2022-09-27T04:44:08.468Z,11.70
2022-09-27T04:46:35.318Z,11.60
2022-09-27T04:49:02.421Z,11.60
2022-09-27T04:51:31.024Z,11.60
2022-09-27T04:53:58.173Z,11.50
2022-09-27T04:56:30.618Z,11.50
2022-09-27T04:58:58.550Z,11.50
2022-09-27T05:01:25.167Z,11.50
2022-09-27T05:03:51.982Z,11.50
2022-09-27T05:06:18.852Z,11.50
2022-09-27T05:08:45.681Z,11.50
2022-09-27T05:11:18.706Z,11.50
2022-09-27T05:14:05.038Z,11.50
2022-09-27T05:16:38.989Z,11.50
2022-09-27T05:19:28.572Z,11.50
2022-09-27T05:22:11.915Z,11.50
2022-09-27T05:24:39.174Z,11.50
2022-09-27T05:27:09.561Z,11.60
2022-09-27T05:29:36.897Z,11.60
2022-09-27T05:32:08.867Z,11.60
2022-09-27T05:34:35.522Z,11.60
2022-09-27T05:37:02.459Z,11.70
2022-09-27T05:39:32.263Z,11.70
2022-09-27T05:41:58.928Z,11.70
2022-09-27T05:44:26.024Z,11.70
2022-09-27T05:47:03.571Z,11.70
2022-09-27T05:49:31.656Z,11.80
2022-09-27T05:51:58.734Z,11.90
2022-09-27T05:54:29.524Z,11.90
2022-09-27T05:57:00.704Z,11.90
2022-09-27T05:59:44.066Z,12.00
2022-09-27T06:02:37.101Z,12.00
2022-09-27T06:05:23.391Z,12.10
2022-09-27T06:08:12.933Z,12.10
2022-09-27T06:10:47.259Z,12.10
2022-09-27T06:13:16.463Z,12.20
2022-09-27T06:15:45.254Z,12.20
2022-09-27T06:18:16.210Z,12.30
2022-09-27T06:20:44.625Z,12.20
2022-09-27T06:23:22.514Z,12.20
2022-09-27T06:25:51.074Z,12.10
2022-09-27T06:28:38.016Z,12.10
2022-09-27T06:31:08.804Z,12.20
2022-09-27T06:33:46.585Z,12.20
2022-09-27T06:36:14.320Z,12.30
2022-09-27T06:38:42.032Z,12.30
2022-09-27T06:41:15.208Z,12.20
2022-09-27T06:44:04.604Z,12.20
2022-09-27T06:46:51.037Z,12.10
2022-09-27T06:49:36.414Z,12.00
2022-09-27T06:52:03.270Z,11.90
2022-09-27T06:54:29.953Z,11.90
2022-09-27T06:57:01.645Z,11.90
2022-09-27T06:59:47.659Z,11.90
2022-09-27T07:02:33.046Z,11.90
2022-09-27T07:05:17.418Z,11.90
2022-09-27T07:08:02.217Z,11.90
2022-09-27T07:10:35.800Z,12.00
2022-09-27T07:13:08.045Z,11.90
2022-09-27T07:15:38.759Z,12.00
2022-09-27T07:18:09.342Z,11.90
2022-09-27T07:20:38.932Z,11.90
2022-09-27T07:23:07.605Z,11.90
2022-09-27T07:25:35.418Z,11.90
2022-09-27T07:28:04.599Z,11.90
2022-09-27T07:30:32.135Z,11.90
2022-09-27T07:33:00.899Z,11.90
2022-09-27T07:35:27.994Z,12.00
2022-09-27T07:37:56.817Z,11.90
2022-09-27T07:40:23.905Z,12.00
2022-09-27T07:42:57.771Z,12.00
2022-09-27T07:45:25.841Z,12.00
2022-09-27T07:48:10.858Z,12.00
2022-09-27T07:51:00.105Z,12.00
2022-09-27T07:53:56.569Z,12.10
2022-09-27T07:56:45.491Z,12.00
2022-09-27T07:59:14.106Z,12.00
2022-09-27T08:01:40.805Z,11.90
2022-09-27T08:04:07.489Z,11.90
2022-09-27T08:06:34.266Z,11.90
2022-09-27T08:09:01.730Z,11.80
2022-09-27T08:11:29.072Z,11.90
2022-09-27T08:13:57.029Z,11.80
2022-09-27T08:16:28.565Z,11.70
2022-09-27T08:19:17.039Z,11.60
2022-09-27T08:22:02.616Z,11.60
2022-09-27T08:24:38.823Z,11.50
2022-09-27T08:27:22.271Z,11.60
2022-09-27T08:29:52.507Z,11.50
2022-09-27T08:32:23.006Z,11.50
2022-09-27T08:34:50.024Z,11.60
2022-09-27T08:37:16.834Z,11.50
2022-09-27T08:39:47.789Z,11.50
2022-09-27T08:42:41.227Z,11.50
2022-09-27T08:45:13.857Z,11.50
2022-09-27T08:47:47.805Z,11.50
2022-09-27T08:50:23.970Z,11.40
2022-09-27T08:53:03.028Z,11.40
2022-09-27T08:55:38.247Z,11.40
2022-09-27T08:58:46.372Z,11.50
2022-09-27T09:01:22.945Z,11.50
2022-09-27T09:04:04.248Z,11.50
2022-09-27T09:06:46.736Z,11.60
2022-09-27T09:09:33.210Z,11.70
2022-09-27T09:12:43.065Z,11.80
2022-09-27T09:15:22.278Z,11.90
2022-09-27T09:18:09.120Z,11.90
2022-09-27T09:21:02.603Z,11.80
2022-09-27T09:23:53.430Z,11.70
2022-09-27T09:26:39.610Z,11.80
2022-09-27T09:29:41.050Z,11.80
2022-09-27T09:32:25.925Z,11.90
2022-09-27T09:35:02.010Z,11.90
2022-09-27T09:37:45.053Z,12.00
2022-09-27T09:40:22.500Z,12.00
2022-09-27T09:43:13.045Z,12.00
2022-09-27T09:45:45.669Z,12.10
2022-09-27T09:48:17.258Z,12.20
2022-09-27T09:50:54.813Z,12.30
2022-09-27T09:53:32.279Z,12.30
2022-09-27T09:56:24.936Z,12.30
2022-09-27T09:59:04.617Z,12.30
2022-09-27T10:01:39.684Z,12.30
2022-09-27T10:04:06.459Z,12.40
2022-09-27T10:06:33.223Z,12.30
2022-09-27T10:09:01.858Z,12.10
2022-09-27T10:11:51.882Z,12.00
2022-09-27T10:14:27.901Z,11.80
2022-09-27T10:17:02.018Z,11.90
2022-09-27T10:19:31.703Z,11.90
2022-09-27T10:22:03.974Z,11.90
2022-09-27T10:25:06.882Z,11.90
2022-09-27T10:27:48.218Z,11.90
2022-09-27T10:30:27.716Z,11.70
2022-09-27T10:33:00.194Z,11.60
2022-09-27T10:35:51.129Z,11.70
2022-09-27T10:38:33.109Z,11.80
2022-09-27T10:41:24.207Z,12.00
2022-09-27T10:43:55.476Z,12.20
2022-09-27T10:46:33.014Z,12.40
2022-09-27T10:49:31.078Z,12.50
2022-09-27T10:52:04.013Z,12.50
2022-09-27T10:54:35.153Z,12.40
2022-09-27T10:57:16.109Z,12.50
2022-09-27T10:59:46.878Z,12.60
2022-09-27T11:02:21.498Z,12.60
2022-09-27T11:05:15.569Z,12.60
2022-09-27T11:07:52.831Z,12.80
2022-09-27T11:10:36.267Z,12.90
2022-09-27T11:13:12.554Z,13.10
2022-09-27T11:15:59.519Z,13.10
2022-09-27T11:18:50.554Z,13.50
2022-09-27T11:21:45.722Z,13.80
2022-09-27T11:24:36.754Z,14.30
2022-09-27T11:27:16.595Z,14.30
2022-09-27T11:30:09.700Z,14.10
2022-09-27T11:33:20.757Z,13.90
2022-09-27T11:36:13.753Z,14.10
2022-09-27T11:38:55.729Z,14.30
2022-09-27T11:41:33.167Z,14.60
2022-09-27T11:44:38.133Z,14.80
2022-09-27T11:47:34.469Z,14.80
2022-09-27T11:50:34.489Z,14.30
2022-09-27T11:53:41.973Z,14.10
2022-09-27T11:56:37.859Z,14.00
2022-09-27T11:59:24.944Z,14.40
2022-09-27T12:02:00.653Z,14.70
2022-09-27T12:05:07.533Z,15.00
2022-09-27T12:08:05.722Z,15.50
2022-09-27T12:10:36.879Z,15.70
2022-09-27T12:13:04.646Z,16.00
2022-09-27T12:15:38.914Z,15.90
2022-09-27T12:18:10.863Z,15.70
2022-09-27T12:20:39.667Z,15.60
2022-09-27T12:23:14.466Z,15.30
2022-09-27T12:26:01.285Z,14.90
2022-09-27T12:28:40.785Z,14.60
2022-09-27T12:31:36.049Z,14.70
2022-09-27T12:34:04.305Z,14.70
2022-09-27T12:36:39.127Z,14.60
2022-09-27T12:39:22.398Z,14.50
2022-09-27T12:42:09.802Z,14.20
2022-09-27T12:44:50.563Z,14.10
2022-09-27T12:47:47.988Z,13.80
2022-09-27T12:50:37.596Z,13.70
2022-09-27T12:53:27.158Z,13.60
2022-09-27T12:56:21.295Z,13.40
2022-09-27T12:59:10.665Z,13.30
2022-09-27T13:02:21.122Z,13.00
2022-09-27T13:05:25.862Z,12.80
2022-09-27T13:08:15.489Z,12.80
2022-09-27T13:11:05.106Z,12.80
2022-09-27T13:13:36.827Z,12.80
2022-09-27T13:16:09.195Z,12.80
2022-09-27T13:18:56.069Z,12.90
2022-09-27T13:21:51.444Z,13.10
2022-09-27T13:24:47.997Z,13.60
2022-09-27T13:27:41.039Z,14.10
2022-09-27T13:30:34.805Z,14.30
2022-09-27T13:33:19.575Z,14.60
2022-09-27T13:36:26.029Z,14.70
2022-09-27T13:39:06.062Z,14.80
2022-09-27T13:41:50.451Z,14.70
2022-09-27T13:44:23.483Z,14.30
2022-09-27T13:46:58.733Z,14.00
2022-09-27T13:49:37.879Z,13.80
2022-09-27T13:52:28.176Z,13.60
2022-09-27T13:55:41.829Z,13.60
2022-09-27T13:58:37.963Z,13.90
2022-09-27T14:01:35.730Z,14.40
2022-09-27T14:04:14.746Z,14.80
2022-09-27T14:06:49.915Z,14.80
2022-09-27T14:09:21.338Z,14.90
2022-09-27T14:12:01.244Z,15.20
2022-09-27T14:14:32.955Z,15.20
2022-09-27T14:17:00.614Z,15.00
2022-09-27T14:19:28.871Z,14.90
2022-09-27T14:21:56.777Z,14.70
2022-09-27T14:24:36.091Z,14.30
2022-09-27T14:27:17.941Z,14.10
2022-09-27T14:29:57.201Z,14.20
2022-09-27T14:32:32.225Z,14.20
2022-09-27T14:35:31.441Z,14.20
2022-09-27T14:38:07.543Z,14.10
2022-09-27T14:41:04.046Z,14.10
2022-09-27T14:43:32.964Z,14.10
2022-09-27T14:46:07.981Z,14.00
2022-09-27T14:48:40.340Z,14.00
2022-09-27T14:51:14.680Z,14.00
2022-09-27T14:53:56.968Z,14.00
2022-09-27T14:56:27.739Z,13.90
2022-09-27T14:59:02.398Z,13.70
2022-09-27T15:01:30.438Z,13.40
2022-09-27T15:04:07.214Z,13.30
2022-09-27T15:06:37.849Z,13.20
2022-09-27T15:09:15.421Z,13.30
2022-09-27T15:11:44.595Z,13.30
2022-09-27T15:14:16.031Z,13.30
2022-09-27T15:16:45.588Z,13.30
2022-09-27T15:19:22.199Z,13.30
2022-09-27T15:21:49.482Z,13.20
2022-09-27T15:24:45.350Z,13.10
2022-09-27T15:27:27.637Z,13.00
2022-09-27T15:30:01.076Z,13.10
2022-09-27T15:32:29.952Z,13.20
2022-09-27T15:35:06.005Z,13.20
2022-09-27T15:37:38.013Z,13.20
2022-09-27T15:40:20.271Z,13.20
2022-09-27T15:43:01.932Z,13.20
2022-09-27T15:45:34.123Z,13.20
2022-09-27T15:48:15.001Z,13.10
2022-09-27T15:50:42.124Z,13.20
2022-09-27T15:53:10.000Z,13.30
2022-09-27T15:55:43.513Z,13.20
2022-09-27T15:58:19.145Z,13.10
2022-09-27T16:00:57.230Z,13.00
2022-09-27T16:03:26.173Z,12.70
2022-09-27T16:05:55.995Z,12.60
2022-09-27T16:08:23.729Z,12.40
2022-09-27T16:10:55.763Z,12.40
2022-09-27T16:13:31.678Z,12.30
2022-09-27T16:16:00.387Z,12.20
2022-09-27T16:18:30.558Z,12.10
2022-09-27T16:20:58.677Z,12.10
2022-09-27T16:23:25.659Z,12.00
2022-09-27T16:25:55.470Z,11.90
2022-09-27T16:28:22.070Z,11.80
2022-09-27T16:30:48.746Z,11.80
2022-09-27T16:33:15.567Z,11.70
2022-09-27T16:35:43.854Z,11.60
2022-09-27T16:38:20.725Z,11.50
2022-09-27T16:40:48.006Z,11.50
2022-09-27T16:43:17.138Z,11.40
2022-09-27T16:45:43.729Z,11.30
2022-09-27T16:48:10.334Z,11.20
2022-09-27T16:50:55.741Z,11.10
2022-09-27T16:53:22.444Z,11.10
2022-09-27T16:55:49.061Z,11.00
2022-09-27T16:58:15.647Z,11.00
2022-09-27T17:00:43.138Z,10.90
2022-09-27T17:03:09.996Z,10.90
2022-09-27T17:05:36.606Z,10.90
2022-09-27T17:08:05.317Z,10.90
2022-09-27T17:10:32.026Z,10.90
2022-09-27T17:13:00.393Z,10.90
2022-09-27T17:15:27.038Z,10.90
2022-09-27T17:17:53.623Z,10.90
2022-09-27T17:20:20.180Z,10.90
2022-09-27T17:22:46.785Z,10.90
2022-09-27T17:25:13.426Z,10.80
2022-09-27T17:27:40.020Z,10.80
2022-09-27T17:30:07.618Z,10.70
2022-09-27T17:32:34.794Z,10.70
2022-09-27T17:35:01.753Z,10.60
2022-09-27T17:37:28.327Z,10.60
2022-09-27T17:39:55.426Z,10.60
2022-09-27T17:42:23.886Z,10.50
2022-09-27T17:44:50.645Z,10.50
2022-09-27T17:47:35.985Z,10.50
2022-09-27T17:50:21.402Z,10.50
2022-09-27T17:52:47.996Z,10.60
2022-09-27T17:55:14.854Z,10.50
2022-09-27T17:57:41.625Z,10.50
2022-09-27T18:00:08.964Z,10.50
2022-09-27T18:02:39.573Z,10.50
2022-09-27T18:05:06.736Z,10.50
2022-09-27T18:07:33.418Z,10.50
2022-09-27T18:10:00.106Z,10.50
2022-09-27T18:12:31.929Z,10.50
2022-09-27T18:14:59.218Z,10.50
2022-09-27T18:17:27.703Z,10.40
2022-09-27T18:19:56.855Z,10.40
2022-09-27T18:22:28.844Z,10.30
2022-09-27T18:24:55.543Z,10.30
2022-09-27T18:27:22.189Z,10.20
2022-09-27T18:29:48.805Z,10.20
2022-09-27T18:32:15.464Z,10.20
2022-09-27T18:34:42.084Z,10.20
2022-09-27T18:37:08.689Z,10.20
2022-09-27T18:39:35.545Z,10.20
2022-09-27T18:42:02.143Z,10.20
2022-09-27T18:44:28.738Z,10.20
2022-09-27T18:46:55.622Z,10.10
2022-09-27T18:49:26.219Z,10.10
2022-09-27T18:51:54.607Z,10.00
2022-09-27T18:54:22.558Z,10.00
2022-09-27T18:56:50.501Z,10.00
2022-09-27T18:59:17.539Z,10.00
2022-09-27T19:01:47.368Z,9.90
2022-09-27T19:04:21.468Z,9.90
2022-09-27T19:06:51.585Z,9.90
2022-09-27T19:09:18.579Z,9.90
2022-09-27T19:11:45.556Z,10.00
2022-09-27T19:14:17.454Z,10.00
2022-09-27T19:16:46.828Z,10.00
2022-09-27T19:19:14.938Z,10.00
2022-09-27T19:21:41.739Z,10.00
2022-09-27T19:24:08.481Z,10.00
2022-09-27T19:26:35.178Z,10.00
2022-09-27T19:29:01.782Z,10.00
2022-09-27T19:31:29.646Z,10.00
2022-09-27T19:34:00.161Z,10.00
2022-09-27T19:36:27.991Z,10.00
2022-09-27T19:38:56.408Z,9.90
2022-09-27T19:41:23.111Z,10.00
2022-09-27T19:43:53.724Z,10.00
2022-09-27T19:46:21.618Z,10.00
2022-09-27T19:48:49.816Z,10.00
2022-09-27T19:51:25.346Z,10.10
2022-09-27T19:53:53.142Z,10.10
2022-09-27T19:56:20.855Z,10.00
2022-09-27T19:58:47.565Z,10.10
2022-09-27T20:01:19.039Z,10.10
2022-09-27T20:03:46.639Z,10.10
2022-09-27T20:06:15.604Z,10.10
2022-09-27T20:08:42.805Z,10.10
2022-09-27T20:11:18.289Z,10.10
2022-09-27T20:13:45.509Z,10.20
2022-09-27T20:16:15.138Z,10.20
2022-09-27T20:18:44.680Z,10.10
2022-09-27T20:21:11.997Z,10.10
2022-09-27T20:23:39.189Z,10.10
2022-09-27T20:26:08.341Z,10.10
2022-09-27T20:28:49.484Z,10.20
2022-09-27T20:31:19.364Z,10.20
2022-09-27T20:33:50.768Z,10.20
2022-09-27T20:36:41.410Z,10.20
2022-09-27T20:39:15.537Z,10.20
2022-09-27T20:41:46.436Z,10.20
2022-09-27T20:44:15.104Z,10.20
2022-09-27T20:46:44.097Z,10.20
2022-09-27T20:49:16.563Z,10.20
2022-09-27T20:51:44.478Z,10.30
2022-09-27T20:54:12.778Z,10.30
2022-09-27T20:56:42.192Z,10.30
2022-09-27T20:59:20.486Z,10.30
2022-09-27T21:01:49.136Z,10.30
2022-09-27T21:04:17.394Z,10.30
2022-09-27T21:06:44.651Z,10.30
2022-09-27T21:09:18.358Z,10.30
2022-09-27T21:11:47.214Z,10.20
2022-09-27T21:14:14.071Z,10.20
2022-09-27T21:16:40.916Z,10.20
2022-09-27T21:19:07.646Z,10.30
2022-09-27T21:21:34.237Z,10.20
2022-09-27T21:24:02.281Z,10.30
2022-09-27T21:26:31.367Z,10.30
2022-09-27T21:29:00.449Z,10.30
2022-09-27T21:31:32.005Z,10.30
2022-09-27T21:34:01.000Z,10.20
2022-09-27T21:36:32.708Z,10.30
2022-09-27T21:39:00.141Z,10.30
2022-09-27T21:41:26.933Z,10.30
2022-09-27T21:43:53.998Z,10.30
2022-09-27T21:46:26.216Z,10.30
2022-09-27T21:48:56.151Z,10.30
2022-09-27T21:51:25.033Z,10.40
2022-09-27T21:53:57.066Z,10.40
2022-09-27T21:56:26.447Z,10.40
2022-09-27T21:58:53.077Z,10.40
2022-09-27T22:01:24.318Z,10.40
2022-09-27T22:03:54.025Z,10.40
2022-09-27T22:06:23.033Z,10.40
2022-09-27T22:08:50.954Z,10.40
2022-09-27T22:11:21.228Z,10.30
2022-09-27T22:13:48.393Z,10.40
2022-09-27T22:16:17.244Z,10.40
2022-09-27T22:18:49.280Z,10.40
2022-09-27T22:21:21.672Z,10.40
2022-09-27T22:23:52.880Z,10.40
2022-09-27T22:26:21.856Z,10.50
2022-09-27T22:28:48.813Z,10.40
2022-09-27T22:31:18.473Z,10.50
2022-09-27T22:33:58.811Z,10.50
2022-09-27T22:36:27.574Z,10.50
2022-09-27T22:38:55.136Z,10.50
2022-09-27T22:41:22.497Z,10.50
2022-09-27T22:43:49.591Z,10.50
2022-09-27T22:46:16.464Z,10.50
2022-09-27T22:48:43.149Z,10.50
2022-09-27T22:51:10.285Z,10.50
2022-09-27T22:53:37.700Z,10.50
2022-09-27T22:56:22.501Z,10.50
2022-09-27T22:58:49.671Z,10.60
2022-09-27T23:01:24.204Z,10.60
2022-09-27T23:03:52.397Z,10.60
2022-09-27T23:06:20.559Z,10.60
2022-09-27T23:08:47.604Z,10.60
2022-09-27T23:11:17.722Z,10.50
2022-09-27T23:13:45.033Z,10.50
2022-09-27T23:16:14.419Z,10.60
2022-09-27T23:18:42.154Z,10.60
2022-09-27T23:21:11.545Z,10.60
2022-09-27T23:23:41.793Z,10.60
2022-09-27T23:26:11.051Z,10.60
2022-09-27T23:28:37.916Z,10.60
2022-09-27T23:31:10.429Z,10.60
2022-09-27T23:33:38.848Z,10.60
2022-09-27T23:36:08.106Z,10.60
2022-09-27T23:38:36.232Z,10.60
2022-09-27T23:41:03.101Z,10.60
2022-09-27T23:43:29.845Z,10.60
2022-09-27T23:45:57.328Z,10.60
2022-09-27T23:48:25.418Z,10.60
2022-09-27T23:50:52.354Z,10.50
2022-09-27T23:53:20.192Z,10.50
2022-09-27T23:55:47.573Z,10.50
2022-09-27T23:58:14.317Z,10.50
